Time;durP1;ratioP1;P1;durP2;ratioP2;P2;SDS_P1;SDS_P2;PMS_P1;PMS_P2;Temp;Humidity;BMP_temperature;BMP_pressure;BME280_temperature;BME280_humidity;BME280_pressure;Samples;Min_cycle;Max_cycle;Signal;HPM_P1;HPM_P2
2023/09/15 00:01:09;;;;;;;17.38;9.85;;;;;;;;;;5014366;27;100460;-61
2023/09/15 00:03:35;;;;;;;11.25;10.07;;;;;;;;;;5011479;27;98812;-62
2023/09/15 00:06:01;;;;;;;13.55;12.07;;;;;;;;;;5010144;27;100273;-62
2023/09/15 00:08:28;;;;;;;18.58;14.80;;;;;;;;;;5010072;27;99477;-61
2023/09/15 00:10:55;;;;;;;15.10;13.07;;;;;;;;;;5012927;27;98629;-61
2023/09/15 00:13:21;;;;;;;16.77;12.73;;;;;;;;;;5010159;27;99754;-61
2023/09/15 00:15:50;;;;;;;13.75;12.57;;;;;;;;;;5009078;27;98903;-61
2023/09/15 00:18:18;;;;;;;14.10;12.57;;;;;;;;;;5015225;27;99191;-61
2023/09/15 00:20:45;;;;;;;15.48;13.85;;;;;;;;;;5009360;27;99611;-61
2023/09/15 00:23:11;;;;;;;17.83;16.02;;;;;;;;;;5009822;27;98888;-61
2023/09/15 00:25:37;;;;;;;15.07;13.65;;;;;;;;;;5009709;27;100206;-60
2023/09/15 00:28:04;;;;;;;12.10;10.05;;;;;;;;;;5010178;27;99483;-61
2023/09/15 00:30:32;;;;;;;16.52;12.90;;;;;;;;;;5009787;27;98638;-61
2023/09/15 00:32:58;;;;;;;13.20;11.88;;;;;;;;;;5013370;27;99271;-61
2023/09/15 00:35:28;;;;;;;16.80;14.80;;;;;;;;;;5014208;27;98522;-61
2023/09/15 00:37:57;;;;;;;15.07;13.65;;;;;;;;;;5015037;27;99315;-61
2023/09/15 00:40:24;;;;;;;13.23;11.90;;;;;;;;;;5018646;27;99481;-61
2023/09/15 00:42:51;;;;;;;17.13;15.35;;;;;;;;;;5011311;27;98531;-61
2023/09/15 00:45:21;;;;;;;12.23;11.02;;;;;;;;;;5008471;27;99631;-61
2023/09/15 00:47:50;;;;;;;15.70;13.07;;;;;;;;;;5010801;27;100534;-61
2023/09/15 00:50:19;;;;;;;12.48;11.15;;;;;;;;;;5009893;27;98593;-61
2023/09/15 00:52:49;;;;;;;20.27;12.65;;;;;;;;;;5009313;27;99318;-61
2023/09/15 00:55:19;;;;;;;10.93;9.80;;;;;;;;;;5012411;27;99560;-60
2023/09/15 00:57:47;;;;;;;21.35;15.20;;;;;;;;;;5010583;27;100182;-61
2023/09/15 01:00:14;;;;;;;15.75;9.95;;;;;;;;;;5009471;27;103004;-61
2023/09/15 01:02:42;;;;;;;9.88;8.85;;;;;;;;;;5010955;27;97841;-61
2023/09/15 01:05:10;;;;;;;10.90;9.57;;;;;;;;;;5009800;27;98729;-61
2023/09/15 01:07:37;;;;;;;13.30;9.73;;;;;;;;;;5014148;27;99502;-61
2023/09/15 01:10:05;;;;;;;17.58;10.13;;;;;;;;;;5008482;27;99369;-61
2023/09/15 01:12:33;;;;;;;11.15;8.25;;;;;;;;;;5013483;27;100108;-60
2023/09/15 01:15:01;;;;;;;14.60;8.75;;;;;;;;;;5013060;27;99475;-61
2023/09/15 01:17:32;;;;;;;12.98;9.07;;;;;;;;;;5014762;27;99230;-61
2023/09/15 01:20:31;;;;;;;10.95;9.52;;;;;;;;;;5013274;27;99808;-60
2023/09/15 01:23:16;;;;;;;10.30;7.97;;;;;;;;;;4986847;27;98554;-61
2023/09/15 01:26:00;;;;;;;12.48;11.27;;;;;;;;;;5013717;27;99317;-61
2023/09/15 01:28:41;;;;;;;13.80;12.32;;;;;;;;;;5009341;27;98767;-60
2023/09/15 01:31:09;;;;;;;10.30;9.38;;;;;;;;;;5013059;27;98511;-60
2023/09/15 01:33:37;;;;;;;25.40;9.50;;;;;;;;;;5010191;27;99460;-61
2023/09/15 01:36:03;;;;;;;14.82;10.13;;;;;;;;;;5008823;27;100186;-60
2023/09/15 01:38:31;;;;;;;10.82;9.68;;;;;;;;;;5008515;27;98586;-61
2023/09/15 01:40:57;;;;;;;10.35;9.35;;;;;;;;;;5015665;27;99174;-61
2023/09/15 01:43:24;;;;;;;15.63;11.60;;;;;;;;;;5009067;27;98588;-61
2023/09/15 01:45:50;;;;;;;12.00;10.70;;;;;;;;;;5006680;27;100247;-61
2023/09/15 01:48:17;;;;;;;10.93;9.95;;;;;;;;;;5011079;27;100400;-61
2023/09/15 01:50:44;;;;;;;12.77;11.55;;;;;;;;;;5009603;27;98483;-61
2023/09/15 01:53:10;;;;;;;10.95;8.30;;;;;;;;;;5008964;27;99247;-61
2023/09/15 01:55:37;;;;;;;10.98;9.68;;;;;;;;;;5009302;27;99696;-61
2023/09/15 01:58:03;;;;;;;10.02;8.20;;;;;;;;;;5009366;27;100242;-61
2023/09/15 02:00:34;;;;;;;10.80;8.63;;;;;;;;;;5015529;27;99401;-61
2023/09/15 02:03:00;;;;;;;;;;;;;;;;;;5011557;27;98510;-61
2023/09/15 02:05:27;;;;;;;9.27;7.28;;;;;;;;;;5011577;27;128970;-61
2023/09/15 02:07:53;;;;;;;12.48;8.05;;;;;;;;;;5009215;27;99742;-61
2023/09/15 02:10:20;;;;;;;11.10;8.85;;;;;;;;;;5013482;27;98812;-61
2023/09/15 02:12:46;;;;;;;9.02;7.68;;;;;;;;;;5012911;27;99192;-61
2023/09/15 02:15:13;;;;;;;14.98;9.32;;;;;;;;;;5008874;27;99407;-61
2023/09/15 02:17:39;;;;;;;14.95;8.70;;;;;;;;;;5012038;27;97818;-61
2023/09/15 02:20:11;;;;;;;15.50;11.73;;;;;;;;;;5008511;27;98535;-61
2023/09/15 02:22:41;;;;;;;13.93;8.77;;;;;;;;;;5023814;27;99754;-60
2023/09/15 02:25:09;;;;;;;11.02;10.00;;;;;;;;;;5011610;27;100291;-60
2023/09/15 02:27:37;;;;;;;10.52;8.82;;;;;;;;;;5008164;27;99627;-61
2023/09/15 02:30:04;;;;;;;11.23;9.70;;;;;;;;;;5013478;27;98589;-61
2023/09/15 02:32:30;;;;;;;12.65;11.00;;;;;;;;;;5013217;27;99191;-61
2023/09/15 02:34:57;;;;;;;14.00;12.60;;;;;;;;;;5009430;27;100567;-60
2023/09/15 02:37:23;;;;;;;10.82;9.70;;;;;;;;;;5014854;27;98892;-60
2023/09/15 02:39:49;;;;;;;15.00;10.05;;;;;;;;;;5011876;27;99141;-60
2023/09/15 02:42:16;;;;;;;10.55;9.60;;;;;;;;;;5008539;27;100090;-61
2023/09/15 02:44:42;;;;;;;11.15;10.05;;;;;;;;;;5011266;27;98538;-61
2023/09/15 02:47:10;;;;;;;10.13;9.10;;;;;;;;;;5010346;27;100050;-61
2023/09/15 02:49:36;;;;;;;11.70;10.57;;;;;;;;;;5012115;27;99403;-61
2023/09/15 02:52:05;;;;;;;15.30;11.07;;;;;;;;;;5011593;27;99906;-61
2023/09/15 02:54:31;;;;;;;11.90;10.07;;;;;;;;;;5007331;27;99621;-61
2023/09/15 02:56:58;;;;;;;9.70;8.68;;;;;;;;;;5007104;27;98702;-61
2023/09/15 02:59:24;;;;;;;9.77;8.70;;;;;;;;;;5009090;27;99113;-61
2023/09/15 03:01:51;;;;;;;9.48;7.18;;;;;;;;;;5008290;27;100003;-61
2023/09/15 03:04:19;;;;;;;10.75;8.82;;;;;;;;;;5012429;27;98593;-62
2023/09/15 03:06:47;;;;;;;12.60;9.02;;;;;;;;;;5012548;27;100320;-60
2023/09/15 03:09:13;;;;;;;14.52;8.27;;;;;;;;;;5012853;27;98500;-61
2023/09/15 03:11:39;;;;;;;14.13;11.65;;;;;;;;;;5008067;27;99176;-61
2023/09/15 03:14:09;;;;;;;11.90;9.80;;;;;;;;;;5011157;27;101314;-61
2023/09/15 03:16:35;;;;;;;11.15;10.13;;;;;;;;;;5011835;27;98640;-61
2023/09/15 03:19:03;;;;;;;13.63;12.35;;;;;;;;;;5007768;27;100251;-61
2023/09/15 03:21:30;;;;;;;12.20;8.85;;;;;;;;;;5015046;27;100446;-65
2023/09/15 03:23:56;;;;;;;22.25;11.82;;;;;;;;;;5008191;27;98556;-61
2023/09/15 03:26:23;;;;;;;13.10;9.93;;;;;;;;;;5007192;27;99301;-61
2023/09/15 03:28:49;;;;;;;12.43;10.02;;;;;;;;;;5010690;27;99477;-61
2023/09/15 03:31:16;;;;;;;12.27;7.93;;;;;;;;;;5008503;27;100193;-60
2023/09/15 03:33:43;;;;;;;14.15;8.27;;;;;;;;;;5010112;27;100762;-61
2023/09/15 03:36:12;;;;;;;12.95;7.15;;;;;;;;;;5011709;27;98627;-61
2023/09/15 03:38:38;;;;;;;8.98;7.30;;;;;;;;;;5015257;27;99400;-61
2023/09/15 03:41:04;;;;;;;7.78;6.97;;;;;;;;;;5014270;27;99799;-60
2023/09/15 03:43:32;;;;;;;7.80;6.97;;;;;;;;;;5010982;27;98501;-61
2023/09/15 03:45:58;;;;;;;8.75;6.15;;;;;;;;;;5015235;27;99187;-61
2023/09/15 03:48:26;;;;;;;7.50;6.78;;;;;;;;;;5010367;27;99753;-61
2023/09/15 03:50:52;;;;;;;7.00;6.13;;;;;;;;;;5015084;27;98478;-61
2023/09/15 03:53:19;;;;;;;10.98;6.03;;;;;;;;;;5010554;27;99431;-61
2023/09/15 03:55:45;;;;;;;8.77;7.93;;;;;;;;;;5015940;27;97811;-61
2023/09/15 03:58:11;;;;;;;12.30;8.30;;;;;;;;;;5011614;27;98430;-61
2023/09/15 04:00:38;;;;;;;8.93;6.85;;;;;;;;;;5011478;27;101978;-61
2023/09/15 04:03:04;;;;;;;9.90;7.13;;;;;;;;;;5017033;27;99618;-61
2023/09/15 04:05:31;;;;;;;8.23;6.47;;;;;;;;;;5012515;27;99789;-60
2023/09/15 04:07:57;;;;;;;7.20;6.15;;;;;;;;;;5012764;27;100540;-61
2023/09/15 04:10:24;;;;;;;6.53;5.93;;;;;;;;;;5017139;27;98601;-61
2023/09/15 04:12:50;;;;;;;6.60;6.00;;;;;;;;;;5010560;27;99475;-61
2023/09/15 04:15:17;;;;;;;15.23;7.40;;;;;;;;;;5010956;27;98937;-61
2023/09/15 04:17:43;;;;;;;9.27;6.18;;;;;;;;;;5014316;27;99159;-61
2023/09/15 04:20:10;;;;;;;9.30;6.70;;;;;;;;;;5011458;27;100128;-60
2023/09/15 04:22:37;;;;;;;7.35;6.65;;;;;;;;;;5010605;27;98554;-61
2023/09/15 04:25:05;;;;;;;8.88;7.25;;;;;;;;;;5011145;27;100199;-61
2023/09/15 04:27:34;;;;;;;7.53;6.53;;;;;;;;;;5009809;27;101119;-60
2023/09/15 04:30:01;;;;;;;10.50;6.93;;;;;;;;;;5010674;27;99045;-60
2023/09/15 04:32:28;;;;;;;11.35;7.75;;;;;;;;;;5013261;27;100179;-61
2023/09/15 04:34:54;;;;;;;8.55;6.47;;;;;;;;;;5015717;27;98699;-61
2023/09/15 04:37:21;;;;;;;7.97;6.70;;;;;;;;;;5013777;27;99507;-60
2023/09/15 04:39:51;;;;;;;8.65;6.57;;;;;;;;;;5014086;27;99283;-61
2023/09/15 04:42:17;;;;;;;8.27;7.17;;;;;;;;;;5010779;27;98413;-61
2023/09/15 04:44:44;;;;;;;7.40;5.78;;;;;;;;;;5010049;27;99868;-60
2023/09/15 04:47:12;;;;;;;11.20;6.60;;;;;;;;;;5013760;27;100723;-61
2023/09/15 04:49:39;;;;;;;11.70;7.55;;;;;;;;;;5014509;27;98578;-61
2023/09/15 04:52:06;;;;;;;9.63;7.18;;;;;;;;;;5010379;27;99372;-60
2023/09/15 04:54:32;;;;;;;8.63;7.25;;;;;;;;;;5013336;27;103331;-61
2023/09/15 04:56:59;;;;;;;8.98;7.05;;;;;;;;;;5009566;27;99662;-60
2023/09/15 04:59:25;;;;;;;13.55;7.28;;;;;;;;;;5009937;27;99205;-61
2023/09/15 05:01:51;;;;;;;9.98;6.85;;;;;;;;;;5010768;27;98436;-60
2023/09/15 05:04:21;;;;;;;13.77;6.70;;;;;;;;;;5010374;27;99307;-60
2023/09/15 05:06:47;;;;;;;8.95;6.30;;;;;;;;;;5009996;27;100463;-60
2023/09/15 05:09:20;;;;;;;9.23;6.63;;;;;;;;;;5014283;27;97888;-60
2023/09/15 05:11:46;;;;;;;8.95;6.97;;;;;;;;;;5010585;27;99491;-60
2023/09/15 05:14:13;;;;;;;9.60;6.75;;;;;;;;;;5012321;27;99947;-60
2023/09/15 05:16:39;;;;;;;10.77;7.15;;;;;;;;;;5015829;27;99838;-60
2023/09/15 05:19:06;;;;;;;14.93;7.00;;;;;;;;;;5009692;27;99510;-60
2023/09/15 05:21:32;;;;;;;16.35;7.25;;;;;;;;;;5013459;27;98824;-61
2023/09/15 05:23:59;;;;;;;8.95;6.18;;;;;;;;;;5010539;27;99231;-61
2023/09/15 05:26:25;;;;;;;11.45;7.57;;;;;;;;;;5008644;27;99560;-60
2023/09/15 05:28:51;;;;;;;12.43;6.97;;;;;;;;;;5021847;27;98507;-60
2023/09/15 05:31:20;;;;;;;10.57;6.47;;;;;;;;;;5009846;27;99169;-60
2023/09/15 05:33:46;;;;;;;14.40;6.55;;;;;;;;;;5010488;27;99877;-60
2023/09/15 05:36:13;;;;;;;11.48;6.85;;;;;;;;;;5013816;27;98658;-61
2023/09/15 05:38:39;;;;;;;8.57;7.03;;;;;;;;;;5015666;27;99177;-60
2023/09/15 05:41:06;;;;;;;11.55;7.15;;;;;;;;;;5008401;27;99220;-60
2023/09/15 05:43:32;;;;;;;8.57;5.70;;;;;;;;;;5010199;27;100878;-60
2023/09/15 05:45:58;;;;;;;9.95;6.43;;;;;;;;;;5016942;27;99544;-60
2023/09/15 05:48:25;;;;;;;8.80;7.13;;;;;;;;;;5009455;27;98473;-60
2023/09/15 05:50:53;;;;;;;11.73;7.85;;;;;;;;;;5009632;27;99154;-61
2023/09/15 05:53:19;;;;;;;9.57;6.10;;;;;;;;;;5009190;27;99525;-60
2023/09/15 05:55:45;;;;;;;10.35;7.13;;;;;;;;;;5006713;27;98765;-60
2023/09/15 05:58:12;;;;;;;8.38;6.80;;;;;;;;;;5012088;27;99140;-60
2023/09/15 06:00:38;;;;;;;8.43;7.53;;;;;;;;;;5013395;27;98724;-60
2023/09/15 06:03:04;;;;;;;9.15;7.55;;;;;;;;;;5009223;27;100143;-61
2023/09/15 06:05:31;;;;;;;11.68;8.55;;;;;;;;;;5012035;27;100374;-61
2023/09/15 06:07:57;;;;;;;10.63;6.78;;;;;;;;;;5026640;27;99467;-61
2023/09/15 06:10:24;;;;;;;8.55;7.40;;;;;;;;;;5011749;27;99369;-61
2023/09/15 06:12:51;;;;;;;17.17;7.50;;;;;;;;;;5008465;27;99830;-61
2023/09/15 06:15:18;;;;;;;11.05;7.68;;;;;;;;;;5012583;27;98588;-61
2023/09/15 06:17:44;;;;;;;10.43;8.10;;;;;;;;;;5012965;27;99124;-61
2023/09/15 06:20:11;;;;;;;16.73;8.45;;;;;;;;;;5011537;27;99423;-61
2023/09/15 06:22:38;;;;;;;14.00;7.47;;;;;;;;;;5008877;27;99169;-61
2023/09/15 06:25:04;;;;;;;12.60;7.72;;;;;;;;;;5008472;27;99584;-61
2023/09/15 06:27:34;;;;;;;11.25;7.68;;;;;;;;;;5008957;27;98957;-61
2023/09/15 06:30:01;;;;;;;18.85;7.82;;;;;;;;;;5010470;27;100699;-61
2023/09/15 06:32:27;;;;;;;18.40;7.57;;;;;;;;;;5012498;27;100478;-61
2023/09/15 06:34:54;;;;;;;13.52;11.77;;;;;;;;;;5009166;27;99261;-61
2023/09/15 06:37:20;;;;;;;15.18;7.70;;;;;;;;;;5008304;27;100400;-61
2023/09/15 06:39:46;;;;;;;13.48;11.05;;;;;;;;;;5007805;27;99510;-61
2023/09/15 06:42:13;;;;;;;12.30;8.18;;;;;;;;;;5011046;27;98642;-61
2023/09/15 06:44:39;;;;;;;12.90;8.02;;;;;;;;;;5008707;27;100526;-60
2023/09/15 06:47:06;;;;;;;18.15;8.98;;;;;;;;;;5013005;27;97851;-61
2023/09/15 06:49:33;;;;;;;24.60;10.27;;;;;;;;;;5008046;27;98649;-61
2023/09/15 06:52:00;;;;;;;24.33;10.63;;;;;;;;;;5008064;27;99437;-61
2023/09/15 06:54:29;;;;;;;15.02;9.73;;;;;;;;;;5009682;27;99281;-60
2023/09/15 06:56:55;;;;;;;18.67;11.68;;;;;;;;;;5008834;27;101024;-61
2023/09/15 06:59:21;;;;;;;14.30;8.25;;;;;;;;;;5007653;27;99485;-61
2023/09/15 07:01:48;;;;;;;13.50;8.30;;;;;;;;;;5007954;27;98711;-61
2023/09/15 07:04:14;;;;;;;13.93;9.05;;;;;;;;;;5010619;27;99996;-61
2023/09/15 07:06:41;;;;;;;19.20;10.95;;;;;;;;;;5008502;27;98530;-61
2023/09/15 07:09:07;;;;;;;15.38;10.23;;;;;;;;;;5011197;27;99147;-61
2023/09/15 07:11:34;;;;;;;18.77;13.10;;;;;;;;;;5010743;27;98711;-61
2023/09/15 07:14:00;;;;;;;11.73;9.40;;;;;;;;;;5010445;27;98722;-61
2023/09/15 07:16:27;;;;;;;13.63;9.55;;;;;;;;;;5015814;27;100236;-61
2023/09/15 07:18:53;;;;;;;13.52;11.13;;;;;;;;;;5015173;27;100344;-61
2023/09/15 07:21:20;;;;;;;14.40;10.80;;;;;;;;;;5014727;27;98607;-62
2023/09/15 07:23:46;;;;;;;24.38;10.68;;;;;;;;;;5011297;27;99200;-61
2023/09/15 07:26:13;;;;;;;17.75;11.45;;;;;;;;;;5018200;27;99572;-61
2023/09/15 07:28:41;;;;;;;17.38;10.73;;;;;;;;;;5012291;27;100220;-62
2023/09/15 07:31:09;;;;;;;16.48;10.82;;;;;;;;;;5010476;27;99439;-61
2023/09/15 07:33:36;;;;;;;18.63;13.30;;;;;;;;;;5018956;27;98619;-61
2023/09/15 07:36:05;;;;;;;21.48;12.27;;;;;;;;;;5011245;27;99554;-62
2023/09/15 07:38:31;;;;;;;21.23;12.32;;;;;;;;;;5009677;27;99440;-61
2023/09/15 07:40:59;;;;;;;20.17;15.55;;;;;;;;;;5010542;27;98518;-61
2023/09/15 07:43:26;;;;;;;17.00;15.25;;;;;;;;;;5009878;27;99401;-61
2023/09/15 07:45:52;;;;;;;19.83;11.38;;;;;;;;;;5014543;27;100581;-61
2023/09/15 07:48:21;;;;;;;13.52;12.07;;;;;;;;;;5022209;27;98544;-61
2023/09/15 07:50:48;;;;;;;18.48;12.70;;;;;;;;;;5021539;27;99502;-61
2023/09/15 07:53:14;;;;;;;20.10;13.65;;;;;;;;;;5011011;27;98581;-61
2023/09/15 07:55:41;;;;;;;15.80;13.48;;;;;;;;;;5009929;27;99373;-61
2023/09/15 07:58:07;;;;;;;17.55;13.05;;;;;;;;;;5010309;27;99454;-61
2023/09/15 08:00:34;;;;;;;23.10;14.70;;;;;;;;;;5010471;27;97874;-60
2023/09/15 08:03:00;;;;;;;15.70;10.40;;;;;;;;;;5009736;27;98611;-61
2023/09/15 08:05:27;;;;;;;18.95;11.20;;;;;;;;;;5009825;27;100411;-61
2023/09/15 08:07:53;;;;;;;15.93;10.95;;;;;;;;;;5013695;27;99491;-61
2023/09/15 08:10:22;;;;;;;17.20;11.23;;;;;;;;;;5010323;27;100813;-61
2023/09/15 08:12:52;;;;;;;16.87;10.93;;;;;;;;;;5010326;27;98614;-61
2023/09/15 08:15:19;;;;;;;25.02;11.70;;;;;;;;;;5010096;27;99066;-61
2023/09/15 08:17:45;;;;;;;19.77;10.38;;;;;;;;;;5015332;27;99893;-61
2023/09/15 08:20:13;;;;;;;16.73;8.98;;;;;;;;;;5011320;27;98601;-61
2023/09/15 08:22:40;;;;;;;17.52;9.52;;;;;;;;;;5010996;27;100527;-61
2023/09/15 08:25:07;;;;;;;15.60;8.20;;;;;;;;;;5010781;27;99770;-61
2023/09/15 08:27:35;;;;;;;16.85;8.38;;;;;;;;;;5010746;27;99037;-61
2023/09/15 08:30:01;;;;;;;15.30;8.23;;;;;;;;;;5016086;27;99607;-61
2023/09/15 08:32:27;;;;;;;13.75;8.27;;;;;;;;;;5013202;27;99277;-61
2023/09/15 08:34:54;;;;;;;18.13;8.02;;;;;;;;;;5022890;27;100176;-61
2023/09/15 08:37:20;;;;;;;17.45;6.75;;;;;;;;;;5010575;27;99472;-61
2023/09/15 08:39:47;;;;;;;8.77;6.07;;;;;;;;;;5016920;27;98764;-61
2023/09/15 08:42:15;;;;;;;12.25;7.10;;;;;;;;;;5011212;27;99551;-61
2023/09/15 08:44:42;;;;;;;10.50;7.07;;;;;;;;;;5011714;27;99086;-61
2023/09/15 08:47:09;;;;;;;16.13;6.88;;;;;;;;;;5017569;27;98622;-61
2023/09/15 08:49:35;;;;;;;9.85;6.82;;;;;;;;;;5010931;27;99145;-61
2023/09/15 08:52:03;;;;;;;18.27;7.25;;;;;;;;;;5018916;27;100487;-60
2023/09/15 08:54:33;;;;;;;12.35;5.82;;;;;;;;;;5010888;27;99644;-61
2023/09/15 08:57:00;;;;;;;15.50;6.82;;;;;;;;;;5009012;27;100643;-61
2023/09/15 08:59:27;;;;;;;16.35;6.63;;;;;;;;;;5015330;27;98579;-61
2023/09/15 09:01:53;;;;;;;10.80;5.93;;;;;;;;;;5014342;27;99146;-61
2023/09/15 09:04:20;;;;;;;11.55;5.93;;;;;;;;;;5007484;27;99802;-61
2023/09/15 09:06:47;;;;;;;11.15;5.75;;;;;;;;;;5010705;27;98510;-61
2023/09/15 09:09:13;;;;;;;13.75;5.80;;;;;;;;;;5009785;27;99099;-61
2023/09/15 09:11:40;;;;;;;11.80;5.40;;;;;;;;;;5009404;27;100535;-61
2023/09/15 09:14:11;;;;;;;8.85;5.45;;;;;;;;;;5017963;27;97861;-61
2023/09/15 09:16:40;;;;;;;12.70;5.90;;;;;;;;;;5010582;27;99482;-61
2023/09/15 09:19:06;;;;;;;11.57;5.90;;;;;;;;;;5010217;27;98784;-62
2023/09/15 09:21:34;;;;;;;16.80;6.32;;;;;;;;;;5009336;27;99489;-61
2023/09/15 09:24:00;;;;;;;7.75;5.85;;;;;;;;;;5008772;27;99451;-62
2023/09/15 09:26:27;;;;;;;9.65;5.28;;;;;;;;;;5010100;27;98559;-61
2023/09/15 09:28:54;;;;;;;12.65;5.60;;;;;;;;;;5014060;27;100140;-62
2023/09/15 09:31:24;;;;;;;12.23;5.68;;;;;;;;;;5007907;27;100594;-62
2023/09/15 09:33:51;;;;;;;18.48;5.72;;;;;;;;;;5009460;27;98548;-62
2023/09/15 09:36:19;;;;;;;9.48;6.05;;;;;;;;;;5016453;27;99163;-61
2023/09/15 09:38:48;;;;;;;10.05;5.38;;;;;;;;;;5009779;27;97766;-61
2023/09/15 09:41:18;;;;;;;14.00;5.35;;;;;;;;;;5009530;27;98540;-62
2023/09/15 09:43:48;;;;;;;7.20;5.15;;;;;;;;;;5008569;27;99815;-61
2023/09/15 09:46:16;;;;;;;13.13;5.35;;;;;;;;;;5009590;27;99287;-61
2023/09/15 09:48:45;;;;;;;13.00;5.90;;;;;;;;;;5009591;27;99932;-61
2023/09/15 09:51:13;;;;;;;7.72;5.35;;;;;;;;;;5011926;27;99525;-61
2023/09/15 09:53:40;;;;;;;12.55;5.50;;;;;;;;;;5013388;27;98714;-62
2023/09/15 09:56:07;;;;;;;12.90;6.03;;;;;;;;;;5008908;27;99200;-61
2023/09/15 09:58:34;;;;;;;8.57;5.10;;;;;;;;;;5020820;27;99731;-61
2023/09/15 10:01:00;;;;;;;13.13;6.00;;;;;;;;;;5009196;27;99131;-61
2023/09/15 10:03:27;;;;;;;14.00;5.63;;;;;;;;;;5008812;27;98824;-61
2023/09/15 10:05:54;;;;;;;16.10;5.22;;;;;;;;;;5009549;27;99130;-60
2023/09/15 10:08:20;;;;;;;9.23;5.07;;;;;;;;;;5013087;27;99174;-61
2023/09/15 10:10:49;;;;;;;11.93;5.43;;;;;;;;;;5007944;27;100318;-61
2023/09/15 10:13:16;;;;;;;8.30;4.95;;;;;;;;;;5014917;27;98923;-61
2023/09/15 10:15:44;;;;;;;5.43;3.95;;;;;;;;;;5014643;27;99126;-61
2023/09/15 10:18:14;;;;;;;10.75;4.97;;;;;;;;;;5013131;27;100425;-61
2023/09/15 10:20:42;;;;;;;10.00;4.45;;;;;;;;;;5009363;27;100224;-61
2023/09/15 10:23:10;;;;;;;13.07;5.10;;;;;;;;;;5007962;27;99469;-61
2023/09/15 10:25:43;;;;;;;8.80;4.47;;;;;;;;;;5013181;27;98568;-61
2023/09/15 10:28:13;;;;;;;18.23;5.32;;;;;;;;;;5013215;27;99116;-61
2023/09/15 10:30:59;;;;;;;11.07;5.10;;;;;;;;;;5013347;27;101463;-61
2023/09/15 10:33:26;;;;;;;9.98;5.40;;;;;;;;;;5013239;27;98598;-61
2023/09/15 10:35:59;;;;;;;8.73;5.20;;;;;;;;;;5007971;27;99352;-61
2023/09/15 10:38:27;;;;;;;8.27;4.15;;;;;;;;;;5017146;27;100657;-61
2023/09/15 10:40:54;;;;;;;9.18;4.00;;;;;;;;;;5019205;27;98593;-61
2023/09/15 10:43:21;;;;;;;6.32;4.60;;;;;;;;;;5012686;27;100033;-60
2023/09/15 10:45:55;;;;;;;11.30;4.60;;;;;;;;;;5007785;27;98692;-61
2023/09/15 10:48:22;;;;;;;6.35;4.60;;;;;;;;;;5014240;27;100397;-61
2023/09/15 10:50:49;;;;;;;5.97;3.80;;;;;;;;;;5007729;27;100421;-60
2023/09/15 10:53:20;;;;;;;4.63;4.00;;;;;;;;;;5009482;27;97853;-60
2023/09/15 10:55:46;;;;;;;8.38;4.15;;;;;;;;;;5008516;27;98704;-60
2023/09/15 10:58:13;;;;;;;7.25;4.35;;;;;;;;;;5007999;27;100588;-60
2023/09/15 11:00:40;;;;;;;8.23;4.50;;;;;;;;;;5011896;27;101815;-60
2023/09/15 11:03:06;;;;;;;9.75;4.82;;;;;;;;;;5011250;27;99892;-60
2023/09/15 11:05:34;;;;;;;6.03;4.18;;;;;;;;;;5008531;27;98716;-60
2023/09/15 11:08:01;;;;;;;11.18;4.40;;;;;;;;;;5008843;27;100148;-61
2023/09/15 11:10:28;;;;;;;11.40;4.35;;;;;;;;;;5008076;27;99538;-61
2023/09/15 11:12:59;;;;;;;12.13;4.70;;;;;;;;;;5007827;27;98600;-61
2023/09/15 11:15:25;;;;;;;10.20;4.45;;;;;;;;;;5007514;27;99170;-61
2023/09/15 11:17:54;;;;;;;6.88;4.55;;;;;;;;;;5009990;27;98981;-60
2023/09/15 11:20:21;;;;;;;6.97;4.18;;;;;;;;;;5007764;27;98920;-61
2023/09/15 11:22:47;;;;;;;7.07;3.70;;;;;;;;;;5013755;27;99121;-61
2023/09/15 11:25:14;;;;;;;10.52;4.05;;;;;;;;;;5012738;27;100549;-60
2023/09/15 11:27:46;;;;;;;12.10;4.00;;;;;;;;;;5012249;27;99923;-59
2023/09/15 11:30:12;;;;;;;8.55;3.75;;;;;;;;;;5012115;27;102281;-61
2023/09/15 11:32:38;;;;;;;8.15;4.20;;;;;;;;;;5008171;27;98494;-61
2023/09/15 11:35:05;;;;;;;8.10;3.88;;;;;;;;;;5007583;27;99084;-60
2023/09/15 11:37:32;;;;;;;5.90;4.05;;;;;;;;;;5007035;27;99483;-60
2023/09/15 11:39:58;;;;;;;9.90;4.05;;;;;;;;;;5006802;27;99118;-61
2023/09/15 11:42:24;;;;;;;11.60;4.10;;;;;;;;;;5008210;27;99055;-61
2023/09/15 11:44:52;;;;;;;5.90;3.42;;;;;;;;;;5007015;27;99560;-60
2023/09/15 11:47:18;;;;;;;8.32;3.92;;;;;;;;;;5017217;27;98595;-60
2023/09/15 11:49:45;;;;;;;12.63;4.22;;;;;;;;;;5006342;27;100144;-60
2023/09/15 11:52:11;;;;;;;11.02;4.03;;;;;;;;;;5007705;27;98634;-61
2023/09/15 11:54:38;;;;;;;7.25;3.67;;;;;;;;;;5011186;27;100163;-62
2023/09/15 11:57:04;;;;;;;9.07;3.80;;;;;;;;;;5015038;27;99408;-61
2023/09/15 11:59:31;;;;;;;6.30;4.10;;;;;;;;;;5011055;27;98714;-61
2023/09/15 12:02:01;;;;;;;6.50;3.83;;;;;;;;;;5014862;27;100258;-61
2023/09/15 12:04:29;;;;;;;4.90;3.38;;;;;;;;;;5009991;27;99587;-61
2023/09/15 12:06:55;;;;;;;13.98;3.60;;;;;;;;;;5011913;27;97782;-61
2023/09/15 12:09:22;;;;;;;7.47;3.97;;;;;;;;;;5013914;27;99174;-61
2023/09/15 12:11:50;;;;;;;9.35;3.72;;;;;;;;;;5015246;27;98674;-61
2023/09/15 12:14:16;;;;;;;4.47;2.92;;;;;;;;;;5010374;27;99322;-60
2023/09/15 12:16:44;;;;;;;9.98;4.80;;;;;;;;;;5012048;27;100482;-59
2023/09/15 12:19:10;;;;;;;13.45;12.38;;;;;;;;;;5015003;27;98538;-59
2023/09/15 12:21:37;;;;;;;54.95;50.42;;;;;;;;;;5009989;27;99247;-59
2023/09/15 12:24:08;;;;;;;111.13;101.35;;;;;;;;;;5009353;27;100459;-59
2023/09/15 12:26:35;;;;;;;108.65;98.97;;;;;;;;;;5013592;27;98487;-59
2023/09/15 12:29:01;;;;;;;110.38;100.78;;;;;;;;;;5013380;27;99651;-60
2023/09/15 12:31:28;;;;;;;100.97;91.40;;;;;;;;;;5007746;27;98248;-59
2023/09/15 12:33:55;;;;;;;105.93;96.53;;;;;;;;;;5026650;27;99779;-59
2023/09/15 12:36:22;;;;;;;118.13;107.88;;;;;;;;;;5016816;27;99481;-60
2023/09/15 12:38:50;;;;;;;124.63;113.50;;;;;;;;;;5008288;27;99455;-60
2023/09/15 12:41:17;;;;;;;163.50;146.77;;;;;;;;;;5008358;27;100152;-60
2023/09/15 12:43:43;;;;;;;210.07;189.77;;;;;;;;;;5008000;27;99841;-60
2023/09/15 12:46:10;;;;;;;242.05;218.57;;;;;;;;;;5010707;27;98711;-60
2023/09/15 12:48:37;;;;;;;242.27;221.20;;;;;;;;;;5012937;27;98748;-60
2023/09/15 12:51:04;;;;;;;261.35;236.93;;;;;;;;;;5014888;27;99874;-60
2023/09/15 12:53:31;;;;;;;264.92;241.07;;;;;;;;;;5009173;27;99737;-60
2023/09/15 12:56:00;;;;;;;305.75;278.13;;;;;;;;;;5012839;27;100312;-60
2023/09/15 12:58:26;;;;;;;324.02;295.33;;;;;;;;;;5008495;27;99155;-60
2023/09/15 13:00:53;;;;;;;313.23;286.02;;;;;;;;;;5012388;27;100271;-60
2023/09/15 13:03:19;;;;;;;315.20;287.90;;;;;;;;;;5011034;27;100778;-60
2023/09/15 13:05:48;;;;;;;357.05;324.67;;;;;;;;;;5007836;27;99260;-61
2023/09/15 13:08:14;;;;;;;357.63;326.98;;;;;;;;;;5007555;27;100321;-60
2023/09/15 13:10:40;;;;;;;349.33;318.92;;;;;;;;;;5007251;27;100061;-60
2023/09/15 13:13:08;;;;;;;354.55;323.88;;;;;;;;;;5011236;27;99443;-58
2023/09/15 13:15:35;;;;;;;;;;;;;;;;;;5007565;27;100399;-58
2023/09/15 13:18:02;;;;;;;359.55;329.45;;;;;;;;;;5018736;27;123280;-58
2023/09/15 13:20:29;;;;;;;365.98;335.70;;;;;;;;;;5007705;27;100334;-58
2023/09/15 13:22:56;;;;;;;399.65;365.10;;;;;;;;;;5006398;27;103598;-58
2023/09/15 13:25:22;;;;;;;331.35;303.08;;;;;;;;;;5006935;27;100033;-58
2023/09/15 13:27:53;;;;;;;410.13;375.42;;;;;;;;;;5005268;27;100799;-58
2023/09/15 13:30:19;;;;;;;421.70;385.73;;;;;;;;;;5006280;27;101826;-58
2023/09/15 13:32:46;;;;;;;388.63;353.67;;;;;;;;;;5010137;27;100251;-59
2023/09/15 13:35:12;;;;;;;489.92;446.95;;;;;;;;;;5009958;27;100952;-58
2023/09/15 13:37:39;;;;;;;402.40;369.48;;;;;;;;;;5006498;27;100181;-58
2023/09/15 13:40:06;;;;;;;432.92;394.60;;;;;;;;;;5006131;27;100771;-58
2023/09/15 13:42:34;;;;;;;459.25;419.60;;;;;;;;;;5006788;27;100920;-58
2023/09/15 13:45:00;;;;;;;;;;;;;;;;;;5007181;27;99556;-58
2023/09/15 13:47:29;;;;;;;434.88;398.35;;;;;;;;;;5010509;27;130979;-58
2023/09/15 13:49:57;;;;;;;394.80;361.65;;;;;;;;;;5005672;27;101090;-58
2023/09/15 13:52:23;;;;;;;468.10;428.45;;;;;;;;;;5007520;27;100869;-59
2023/09/15 13:54:50;;;;;;;495.00;450.60;;;;;;;;;;5005942;27;101776;-59
2023/09/15 13:57:16;;;;;;;459.70;419.83;;;;;;;;;;5009163;27;102178;-59
2023/09/15 13:59:53;;;;;;;427.47;390.27;;;;;;;;;;5006040;27;102422;-59
2023/09/15 14:02:19;;;;;;;478.58;438.52;;;;;;;;;;5006220;27;102050;-59
2023/09/15 14:04:50;;;;;;;480.02;439.02;;;;;;;;;;5006196;27;100314;-59
2023/09/15 14:07:16;;;;;;;457.38;416.98;;;;;;;;;;5005656;27;100772;-59
2023/09/15 14:09:42;;;;;;;456.83;418.13;;;;;;;;;;5006298;27;100099;-59
2023/09/15 14:12:09;;;;;;;545.70;497.35;;;;;;;;;;5006921;27;99854;-59
2023/09/15 14:14:35;;;;;;;514.65;469.25;;;;;;;;;;5006432;27;100610;-59
2023/09/15 14:17:04;;;;;;;511.13;466.70;;;;;;;;;;5006997;27;101281;-59
2023/09/15 14:19:31;;;;;;;521.05;476.73;;;;;;;;;;5009686;27;99886;-59
2023/09/15 14:21:57;;;;;;;501.73;458.98;;;;;;;;;;5005703;27;100476;-59
2023/09/15 14:24:25;;;;;;;470.42;430.20;;;;;;;;;;5005698;27;99504;-59